sensor_id;sensor_type;location;lat;lon;timestamp;pressure;altitude;pressure_sealevel;temperature;humidity
53116;BME280;39010;48.088;7.954;2022-07-12T00:02:10;99210.22;;;16.67;75.15
53116;BME280;39010;48.088;7.954;2022-07-12T00:04:36;99210.44;;;16.65;75.78
53116;BME280;39010;48.088;7.954;2022-07-12T00:07:03;99212.72;;;16.61;76.76
53116;BME280;39010;48.088;7.954;2022-07-12T00:09:30;99217.09;;;16.62;76.59
53116;BME280;39010;48.088;7.954;2022-07-12T00:11:56;99208.34;;;16.60;77.11
53116;BME280;39010;48.088;7.954;2022-07-12T00:14:24;99212.31;;;16.58;77.70
53116;BME280;39010;48.088;7.954;2022-07-12T00:16:52;99220.88;;;16.55;77.78
53116;BME280;39010;48.088;7.954;2022-07-12T00:19:18;99218.31;;;16.40;77.51
53116;BME280;39010;48.088;7.954;2022-07-12T00:21:44;99214.19;;;16.51;77.25
53116;BME280;39010;48.088;7.954;2022-07-12T00:24:11;99227.53;;;16.45;77.11
53116;BME280;39010;48.088;7.954;2022-07-12T00:26:37;99226.47;;;16.46;76.05
53116;BME280;39010;48.088;7.954;2022-07-12T00:29:04;99226.06;;;16.49;75.72
53116;BME280;39010;48.088;7.954;2022-07-12T00:31:30;99225.63;;;16.46;75.03
53116;BME280;39010;48.088;7.954;2022-07-12T00:33:57;99224.19;;;16.43;74.43
53116;BME280;39010;48.088;7.954;2022-07-12T00:36:23;99214.19;;;16.51;73.99
53116;BME280;39010;48.088;7.954;2022-07-12T00:38:50;99221.69;;;16.55;73.59
53116;BME280;39010;48.088;7.954;2022-07-12T00:41:16;99226.88;;;16.50;74.29
53116;BME280;39010;48.088;7.954;2022-07-12T00:43:43;99220.25;;;16.53;73.57
53116;BME280;39010;48.088;7.954;2022-07-12T00:46:09;99217.94;;;16.49;73.83
53116;BME280;39010;48.088;7.954;2022-07-12T00:48:36;99225.44;;;16.47;73.48
53116;BME280;39010;48.088;7.954;2022-07-12T00:51:03;99228.75;;;16.43;74.01
53116;BME280;39010;48.088;7.954;2022-07-12T00:53:30;99222.94;;;16.39;74.11
53116;BME280;39010;48.088;7.954;2022-07-12T00:55:57;99223.97;;;16.38;74.52
53116;BME280;39010;48.088;7.954;2022-07-12T00:58:24;99222.50;;;16.35;74.38
53116;BME280;39010;48.088;7.954;2022-07-12T01:00:52;99222.28;;;16.37;74.17
53116;BME280;39010;48.088;7.954;2022-07-12T01:03:21;99226.47;;;16.33;74.26
53116;BME280;39010;48.088;7.954;2022-07-12T01:05:47;99225.59;;;16.32;74.27
53116;BME280;39010;48.088;7.954;2022-07-12T01:08:14;99227.50;;;16.32;74.57
53116;BME280;39010;48.088;7.954;2022-07-12T01:10:42;99229.56;;;16.30;74.49
53116;BME280;39010;48.088;7.954;2022-07-12T01:13:09;99228.13;;;16.34;73.84
53116;BME280;39010;48.088;7.954;2022-07-12T01:15:36;99225.81;;;16.31;73.79
53116;BME280;39010;48.088;7.954;2022-07-12T01:18:03;99222.28;;;16.30;73.86
53116;BME280;39010;48.088;7.954;2022-07-12T01:20:31;99232.06;;;16.25;74.01
53116;BME280;39010;48.088;7.954;2022-07-12T01:22:59;99225.19;;;16.29;73.75
53116;BME280;39010;48.088;7.954;2022-07-12T01:25:26;99220.19;;;16.26;74.10
53116;BME280;39010;48.088;7.954;2022-07-12T01:27:52;99225.38;;;16.20;74.39
53116;BME280;39010;48.088;7.954;2022-07-12T01:30:19;99225.78;;;16.17;74.31
53116;BME280;39010;48.088;7.954;2022-07-12T01:32:46;99227.88;;;16.15;74.68
53116;BME280;39010;48.088;7.954;2022-07-12T01:35:13;99230.53;;;16.09;75.11
53116;BME280;39010;48.088;7.954;2022-07-12T01:37:43;99228.47;;;16.11;75.02
53116;BME280;39010;48.088;7.954;2022-07-12T01:40:14;99224.72;;;16.05;75.03
53116;BME280;39010;48.088;7.954;2022-07-12T01:42:41;99226.97;;;16.01;75.34
53116;BME280;39010;48.088;7.954;2022-07-12T01:45:11;99223.84;;;15.98;75.42
53116;BME280;39010;48.088;7.954;2022-07-12T01:47:38;99224.91;;;15.97;75.29
53116;BME280;39010;48.088;7.954;2022-07-12T01:50:09;99220.50;;;15.96;75.62
53116;BME280;39010;48.088;7.954;2022-07-12T01:52:39;99213.84;;;15.92;75.50
53116;BME280;39010;48.088;7.954;2022-07-12T01:55:06;99223.63;;;15.93;75.77
53116;BME280;39010;48.088;7.954;2022-07-12T01:57:32;99218.00;;;15.87;76.24
53116;BME280;39010;48.088;7.954;2022-07-12T02:00:03;99219.41;;;15.83;76.27
53116;BME280;39010;48.088;7.954;2022-07-12T02:02:31;99224.59;;;15.78;76.05
53116;BME280;39010;48.088;7.954;2022-07-12T02:05:02;99221.69;;;15.80;75.71
53116;BME280;39010;48.088;7.954;2022-07-12T02:22:24;99221.41;;;15.68;76.58
53116;BME280;39010;48.088;7.954;2022-07-12T02:24:50;99224.97;;;15.68;76.56
53116;BME280;39010;48.088;7.954;2022-07-12T02:27:17;99228.09;;;15.72;76.24
53116;BME280;39010;48.088;7.954;2022-07-12T02:29:43;99225.56;;;15.64;76.79
53116;BME280;39010;48.088;7.954;2022-07-12T02:32:09;99230.16;;;15.63;77.16
53116;BME280;39010;48.088;7.954;2022-07-12T02:34:36;99235.56;;;15.63;76.54
53116;BME280;39010;48.088;7.954;2022-07-12T02:37:02;99235.34;;;15.65;76.62
53116;BME280;39010;48.088;7.954;2022-07-12T02:39:29;99237.00;;;15.59;77.23
53116;BME280;39010;48.088;7.954;2022-07-12T02:41:55;99233.44;;;15.58;76.86
53116;BME280;39010;48.088;7.954;2022-07-12T02:44:22;99236.75;;;15.54;77.47
53116;BME280;39010;48.088;7.954;2022-07-12T02:46:48;99236.31;;;15.50;77.78
53116;BME280;39010;48.088;7.954;2022-07-12T02:49:15;99243.00;;;15.54;77.08
53116;BME280;39010;48.088;7.954;2022-07-12T02:51:41;99240.28;;;15.54;76.71
53116;BME280;39010;48.088;7.954;2022-07-12T02:54:08;99241.72;;;15.50;77.09
53116;BME280;39010;48.088;7.954;2022-07-12T02:56:34;99241.31;;;15.46;77.58
53116;BME280;39010;48.088;7.954;2022-07-12T02:59:00;99238.78;;;15.45;77.28
53116;BME280;39010;48.088;7.954;2022-07-12T03:01:27;99231.28;;;15.47;77.37
53116;BME280;39010;48.088;7.954;2022-07-12T03:03:53;99244.19;;;15.45;77.69
53116;BME280;39010;48.088;7.954;2022-07-12T03:06:20;99238.78;;;15.45;77.51
53116;BME280;39010;48.088;7.954;2022-07-12T03:08:46;99244.59;;;15.42;78.00
53116;BME280;39010;48.088;7.954;2022-07-12T03:11:12;99252.06;;;15.40;77.76
53116;BME280;39010;48.088;7.954;2022-07-12T03:13:39;99249.13;;;15.35;78.42
53116;BME280;39010;48.088;7.954;2022-07-12T03:16:05;99247.84;;;15.30;78.11
53116;BME280;39010;48.088;7.954;2022-07-12T03:18:33;99246.81;;;15.31;78.06
53116;BME280;39010;48.088;7.954;2022-07-12T03:21:00;99245.78;;;15.32;78.07
53116;BME280;39010;48.088;7.954;2022-07-12T03:23:26;99238.13;;;15.36;78.14
53116;BME280;39010;48.088;7.954;2022-07-12T03:25:52;99238.91;;;15.30;78.35
53116;BME280;39010;48.088;7.954;2022-07-12T03:28:19;99241.00;;;15.35;78.11
53116;BME280;39010;48.088;7.954;2022-07-12T03:30:45;99238.69;;;15.31;78.43
53116;BME280;39010;48.088;7.954;2022-07-12T03:33:12;99235.81;;;15.33;78.14
53116;BME280;39010;48.088;7.954;2022-07-12T03:35:38;99246.16;;;15.29;78.38
53116;BME280;39010;48.088;7.954;2022-07-12T03:38:05;99238.44;;;15.26;78.55
53116;BME280;39010;48.088;7.954;2022-07-12T03:40:32;99244.06;;;15.25;78.56
53116;BME280;39010;48.088;7.954;2022-07-12T03:43:00;99241.56;;;15.23;78.67
53116;BME280;39010;48.088;7.954;2022-07-12T03:45:27;99236.53;;;15.20;78.70
53116;BME280;39010;48.088;7.954;2022-07-12T03:47:53;99230.25;;;15.13;79.05
53116;BME280;39010;48.088;7.954;2022-07-12T03:50:20;99243.59;;;15.14;78.92
53116;BME280;39010;48.088;7.954;2022-07-12T03:52:47;99241.53;;;15.16;78.87
53116;BME280;39010;48.088;7.954;2022-07-12T03:55:14;99244.75;;;15.05;79.53
53116;BME280;39010;48.088;7.954;2022-07-12T03:57:40;99247.66;;;15.03;79.65
53116;BME280;39010;48.088;7.954;2022-07-12T04:00:09;99253.06;;;15.03;79.61
53116;BME280;39010;48.088;7.954;2022-07-12T04:02:39;99255.56;;;15.05;79.56
53116;BME280;39010;48.088;7.954;2022-07-12T04:05:06;99257.03;;;15.08;79.21
53116;BME280;39010;48.088;7.954;2022-07-12T04:07:33;99258.06;;;15.07;79.21
53116;BME280;39010;48.088;7.954;2022-07-12T04:10:00;99258.06;;;15.07;79.07
53116;BME280;39010;48.088;7.954;2022-07-12T04:12:27;99264.72;;;15.04;79.93
53116;BME280;39010;48.088;7.954;2022-07-12T04:14:53;99274.06;;;15.01;79.85
53116;BME280;39010;48.088;7.954;2022-07-12T04:17:20;99270.91;;;14.98;80.18
53116;BME280;39010;48.088;7.954;2022-07-12T04:19:46;99262.19;;;15.02;79.30
53116;BME280;39010;48.088;7.954;2022-07-12T04:22:13;99276.78;;;15.01;79.43
53116;BME280;39010;48.088;7.954;2022-07-12T04:24:39;99276.59;;;15.10;78.48
53116;BME280;39010;48.088;7.954;2022-07-12T04:27:05;99275.97;;;15.08;78.97
53116;BME280;39010;48.088;7.954;2022-07-12T04:29:32;99277.63;;;15.09;78.54
53116;BME280;39010;48.088;7.954;2022-07-12T04:31:59;99274.75;;;15.10;78.66
53116;BME280;39010;48.088;7.954;2022-07-12T04:34:25;99275.41;;;15.12;78.56
53116;BME280;39010;48.088;7.954;2022-07-12T04:36:52;99279.56;;;15.15;79.01
53116;BME280;39010;48.088;7.954;2022-07-12T04:39:18;99282.09;;;15.16;78.92
53116;BME280;39010;48.088;7.954;2022-07-12T04:41:46;99283.53;;;15.19;78.55
53116;BME280;39010;48.088;7.954;2022-07-12T04:44:12;99285.59;;;15.17;79.09
53116;BME280;39010;48.088;7.954;2022-07-12T04:46:38;99293.72;;;15.17;78.61
53116;BME280;39010;48.088;7.954;2022-07-12T04:49:05;99291.03;;;15.17;78.99
53116;BME280;39010;48.088;7.954;2022-07-12T04:51:32;99295.22;;;15.20;78.81
53116;BME280;39010;48.088;7.954;2022-07-12T04:53:59;99297.81;;;15.35;78.14
53116;BME280;39010;48.088;7.954;2022-07-12T04:56:25;99291.91;;;15.24;79.00
53116;BME280;39010;48.088;7.954;2022-07-12T04:58:52;99288.66;;;15.36;77.89
53116;BME280;39010;48.088;7.954;2022-07-12T05:01:25;99290.56;;;15.42;77.18
53116;BME280;39010;48.088;7.954;2022-07-12T05:03:52;99291.91;;;15.53;76.19
53116;BME280;39010;48.088;7.954;2022-07-12T05:06:18;99293.22;;;15.64;76.19
53116;BME280;39010;48.088;7.954;2022-07-12T05:08:45;99296.13;;;15.62;75.81
53116;BME280;39010;48.088;7.954;2022-07-12T05:11:11;99295.91;;;15.64;75.54
53116;BME280;39010;48.088;7.954;2022-07-12T05:13:38;99302.81;;;15.66;75.50
53116;BME280;39010;48.088;7.954;2022-07-12T05:16:07;99298.53;;;15.79;74.72
53116;BME280;39010;48.088;7.954;2022-07-12T05:18:34;99303.41;;;15.97;74.49
53116;BME280;39010;48.088;7.954;2022-07-12T05:21:01;99288.22;;;16.02;73.45
53116;BME280;39010;48.088;7.954;2022-07-12T05:23:28;99298.69;;;16.12;74.42
53116;BME280;39010;48.088;7.954;2022-07-12T05:25:54;99301.63;;;16.17;73.91
53116;BME280;39010;48.088;7.954;2022-07-12T05:28:20;99295.88;;;16.34;73.45
53116;BME280;39010;48.088;7.954;2022-07-12T05:30:47;99292.78;;;16.51;72.80
53116;BME280;39010;48.088;7.954;2022-07-12T05:33:14;99294.06;;;16.68;72.02
53116;BME280;39010;48.088;7.954;2022-07-12T05:35:40;99298.44;;;16.83;72.11
53116;BME280;39010;48.088;7.954;2022-07-12T05:38:06;99291.59;;;17.00;70.65
53116;BME280;39010;48.088;7.954;2022-07-12T05:40:34;99290.34;;;17.23;68.97
53116;BME280;39010;48.088;7.954;2022-07-12T05:43:00;99293.06;;;17.36;69.00
53116;BME280;39010;48.088;7.954;2022-07-12T05:45:27;99297.25;;;17.26;69.04
53116;BME280;39010;48.088;7.954;2022-07-12T05:47:53;99304.31;;;17.47;68.42
53116;BME280;39010;48.088;7.954;2022-07-12T05:50:20;99308.47;;;17.56;68.35
53116;BME280;39010;48.088;7.954;2022-07-12T05:52:46;99305.47;;;17.85;68.68
53116;BME280;39010;48.088;7.954;2022-07-12T05:55:31;99306.31;;;17.85;66.82
53116;BME280;39010;48.088;7.954;2022-07-12T05:57:58;99303.78;;;17.97;66.51
53116;BME280;39010;48.088;7.954;2022-07-12T06:00:24;99305.41;;;18.11;66.39
53116;BME280;39010;48.088;7.954;2022-07-12T06:02:51;99309.81;;;18.13;65.98
53116;BME280;39010;48.088;7.954;2022-07-12T06:05:18;99309.06;;;18.37;65.42
53116;BME280;39010;48.088;7.954;2022-07-12T06:07:44;99308.56;;;18.54;64.74
53116;BME280;39010;48.088;7.954;2022-07-12T06:10:11;99318.97;;;18.64;64.55
53116;BME280;39010;48.088;7.954;2022-07-12T06:12:38;99308.59;;;18.79;63.27
53116;BME280;39010;48.088;7.954;2022-07-12T06:15:05;99313.25;;;18.72;64.26
53116;BME280;39010;48.088;7.954;2022-07-12T06:17:33;99310.38;;;18.99;63.91
53116;BME280;39010;48.088;7.954;2022-07-12T06:20:01;99306.94;;;19.10;62.66
53116;BME280;39010;48.088;7.954;2022-07-12T06:22:27;99313.88;;;19.06;62.81
53116;BME280;39010;48.088;7.954;2022-07-12T06:24:54;99315.06;;;19.42;61.94
53116;BME280;39010;48.088;7.954;2022-07-12T06:27:20;99323.72;;;19.58;61.73
53116;BME280;39010;48.088;7.954;2022-07-12T06:29:47;99325.75;;;19.81;61.94
53116;BME280;39010;48.088;7.954;2022-07-12T06:32:17;99324.84;;;20.13;61.13
53116;BME280;39010;48.088;7.954;2022-07-12T06:34:44;99320.97;;;20.02;60.02
53116;BME280;39010;48.088;7.954;2022-07-12T06:37:10;99319.69;;;20.23;59.30
53116;BME280;39010;48.088;7.954;2022-07-12T06:39:39;99327.44;;;20.38;60.09
53116;BME280;39010;48.088;7.954;2022-07-12T06:42:05;99323.50;;;20.65;59.09
53116;BME280;39010;48.088;7.954;2022-07-12T06:44:32;99323.47;;;20.83;58.61
53116;BME280;39010;48.088;7.954;2022-07-12T06:46:59;99325.25;;;20.78;58.29
53116;BME280;39010;48.088;7.954;2022-07-12T06:49:26;99324.47;;;21.01;57.83
53116;BME280;39010;48.088;7.954;2022-07-12T06:51:52;99320.72;;;21.26;57.61
53116;BME280;39010;48.088;7.954;2022-07-12T06:54:19;99325.25;;;21.32;56.70
53116;BME280;39010;48.088;7.954;2022-07-12T06:56:45;99330.41;;;21.64;56.39
53116;BME280;39010;48.088;7.954;2022-07-12T06:59:12;99321.09;;;21.89;55.44
53116;BME280;39010;48.088;7.954;2022-07-12T07:01:42;99327.25;;;21.37;57.12
53116;BME280;39010;48.088;7.954;2022-07-12T07:04:09;99325.63;;;21.95;54.29
53116;BME280;39010;48.088;7.954;2022-07-12T07:06:35;99335.28;;;22.27;53.75
53116;BME280;39010;48.088;7.954;2022-07-12T07:09:02;99329.31;;;22.30;52.94
53116;BME280;39010;48.088;7.954;2022-07-12T07:11:34;99329.31;;;22.30;53.02
53116;BME280;39010;48.088;7.954;2022-07-12T07:14:01;99333.56;;;22.37;55.14
53116;BME280;39010;48.088;7.954;2022-07-12T07:16:28;99331.50;;;22.86;54.46
53116;BME280;39010;48.088;7.954;2022-07-12T07:18:54;99341.03;;;23.00;53.08
53116;BME280;39010;48.088;7.954;2022-07-12T07:21:21;99342.59;;;22.79;54.03
53116;BME280;39010;48.088;7.954;2022-07-12T07:23:47;99342.22;;;22.58;53.96
53116;BME280;39010;48.088;7.954;2022-07-12T07:26:14;99343.63;;;22.61;55.07
53116;BME280;39010;48.088;7.954;2022-07-12T07:28:41;99349.16;;;22.37;55.01
53116;BME280;39010;48.088;7.954;2022-07-12T07:31:26;99353.34;;;22.16;56.14
53116;BME280;39010;48.088;7.954;2022-07-12T07:33:53;99343.91;;;22.06;55.86
53116;BME280;39010;48.088;7.954;2022-07-12T07:36:19;99349.16;;;21.96;56.28
53116;BME280;39010;48.088;7.954;2022-07-12T07:38:46;99350.22;;;21.83;56.67
53116;BME280;39010;48.088;7.954;2022-07-12T07:41:12;99355.44;;;21.85;57.36
53116;BME280;39010;48.088;7.954;2022-07-12T07:43:39;99361.00;;;22.02;55.85
53116;BME280;39010;48.088;7.954;2022-07-12T07:46:05;99358.88;;;22.04;57.55
53116;BME280;39010;48.088;7.954;2022-07-12T07:48:32;99356.47;;;22.19;56.36
53116;BME280;39010;48.088;7.954;2022-07-12T07:50:58;99357.28;;;22.20;56.39
53116;BME280;39010;48.088;7.954;2022-07-12T07:53:25;99354.97;;;22.53;56.18
53116;BME280;39010;48.088;7.954;2022-07-12T07:55:51;99345.47;;;22.31;56.13
53116;BME280;39010;48.088;7.954;2022-07-12T07:58:18;99349.41;;;22.47;55.35
53116;BME280;39010;48.088;7.954;2022-07-12T08:00:49;99350.19;;;22.60;55.18
53116;BME280;39010;48.088;7.954;2022-07-12T08:03:16;99350.63;;;22.69;55.28
53116;BME280;39010;48.088;7.954;2022-07-12T08:05:42;99352.41;;;22.92;54.20
53116;BME280;39010;48.088;7.954;2022-07-12T08:08:09;99347.28;;;22.95;54.05
53116;BME280;39010;48.088;7.954;2022-07-12T08:10:35;99358.31;;;23.01;54.20
53116;BME280;39010;48.088;7.954;2022-07-12T08:13:02;99351.22;;;23.51;54.21
53116;BME280;39010;48.088;7.954;2022-07-12T08:15:29;99350.06;;;24.03;52.18
53116;BME280;39010;48.088;7.954;2022-07-12T08:17:56;99350.72;;;24.10;50.93
53116;BME280;39010;48.088;7.954;2022-07-12T08:20:24;99347.09;;;23.88;51.92
53116;BME280;39010;48.088;7.954;2022-07-12T08:23:10;99351.75;;;23.87;51.54
53116;BME280;39010;48.088;7.954;2022-07-12T08:25:37;99349.00;;;24.26;52.03
53116;BME280;39010;48.088;7.954;2022-07-12T08:28:04;99340.06;;;24.36;50.79
53116;BME280;39010;48.088;7.954;2022-07-12T08:30:30;99350.19;;;24.58;51.06
53116;BME280;39010;48.088;7.954;2022-07-12T08:32:57;99337.25;;;24.53;51.16
53116;BME280;39010;48.088;7.954;2022-07-12T08:35:23;99341.75;;;23.98;52.56
53116;BME280;39010;48.088;7.954;2022-07-12T08:37:50;99338.28;;;24.47;51.77
53116;BME280;39010;48.088;7.954;2022-07-12T08:40:17;99339.00;;;24.87;51.22
53116;BME280;39010;48.088;7.954;2022-07-12T08:42:44;99339.66;;;25.32;48.75
53116;BME280;39010;48.088;7.954;2022-07-12T08:45:13;99341.25;;;25.28;47.41
53116;BME280;39010;48.088;7.954;2022-07-12T08:47:40;99342.31;;;25.22;48.42
53116;BME280;39010;48.088;7.954;2022-07-12T08:52:42;99344.00;;;24.95;48.89
53116;BME280;39010;48.088;7.954;2022-07-12T08:55:26;99355.22;;;25.54;47.12
53116;BME280;39010;48.088;7.954;2022-07-12T08:57:59;99344.66;;;25.78;45.87
53116;BME280;39010;48.088;7.954;2022-07-12T09:00:27;99341.84;;;25.68;45.52
53116;BME280;39010;48.088;7.954;2022-07-12T09:03:01;99343.00;;;25.77;45.10
53116;BME280;39010;48.088;7.954;2022-07-12T09:05:30;99342.63;;;26.11;44.79
53116;BME280;39010;48.088;7.954;2022-07-12T09:08:08;99348.72;;;25.65;45.21
53116;BME280;39010;48.088;7.954;2022-07-12T09:10:51;99349.13;;;26.38;43.55
53116;BME280;39010;48.088;7.954;2022-07-12T09:13:18;99344.59;;;25.68;44.61
53116;BME280;39010;48.088;7.954;2022-07-12T09:15:44;99341.34;;;25.76;45.46
53116;BME280;39010;48.088;7.954;2022-07-12T09:18:13;99322.50;;;26.74;44.59
53116;BME280;39010;48.088;7.954;2022-07-12T09:20:42;99327.53;;;27.24;43.28
53116;BME280;39010;48.088;7.954;2022-07-12T09:23:16;99338.69;;;26.55;44.06
53116;BME280;39010;48.088;7.954;2022-07-12T09:25:44;99334.50;;;26.32;45.11
53116;BME280;39010;48.088;7.954;2022-07-12T09:28:11;99335.72;;;26.72;43.52
53116;BME280;39010;48.088;7.954;2022-07-12T09:30:47;99335.25;;;27.32;42.62
53116;BME280;39010;48.088;7.954;2022-07-12T09:33:17;99340.16;;;27.72;41.34
53116;BME280;39010;48.088;7.954;2022-07-12T09:36:03;99335.66;;;28.17;40.31
53116;BME280;39010;48.088;7.954;2022-07-12T09:38:35;99342.69;;;27.32;42.04
53116;BME280;39010;48.088;7.954;2022-07-12T09:41:04;99328.59;;;27.64;41.63
53116;BME280;39010;48.088;7.954;2022-07-12T09:43:31;99349.56;;;26.88;42.27
53116;BME280;39010;48.088;7.954;2022-07-12T09:45:59;99343.53;;;27.32;41.81
53116;BME280;39010;48.088;7.954;2022-07-12T09:48:27;99347.38;;;27.00;41.98
53116;BME280;39010;48.088;7.954;2022-07-12T09:50:56;99350.69;;;27.13;41.22
53116;BME280;39010;48.088;7.954;2022-07-12T09:53:32;99354.78;;;26.95;41.46
53116;BME280;39010;48.088;7.954;2022-07-12T09:56:04;99337.69;;;27.70;40.91
53116;BME280;39010;48.088;7.954;2022-07-12T09:58:38;99349.28;;;27.46;40.87
53116;BME280;39010;48.088;7.954;2022-07-12T10:01:07;99346.53;;;27.36;40.38
53116;BME280;39010;48.088;7.954;2022-07-12T10:03:42;99337.41;;;27.77;40.71
53116;BME280;39010;48.088;7.954;2022-07-12T10:06:11;99336.34;;;27.31;41.54
53116;BME280;39010;48.088;7.954;2022-07-12T10:08:38;99330.97;;;28.18;39.74
53116;BME280;39010;48.088;7.954;2022-07-12T10:11:05;99339.16;;;28.89;38.66
53116;BME280;39010;48.088;7.954;2022-07-12T10:13:33;99342.44;;;28.96;37.50
53116;BME280;39010;48.088;7.954;2022-07-12T10:16:01;99334.25;;;28.80;38.17
53116;BME280;39010;48.088;7.954;2022-07-12T10:18:29;99339.06;;;29.34;37.25
53116;BME280;39010;48.088;7.954;2022-07-12T10:20:56;99336.00;;;28.61;37.02
53116;BME280;39010;48.088;7.954;2022-07-12T10:25:52;99333.16;;;28.71;36.57
53116;BME280;39010;48.088;7.954;2022-07-12T10:28:18;99335.91;;;29.51;37.81
53116;BME280;39010;48.088;7.954;2022-07-12T10:30:47;99322.81;;;30.35;35.58
53116;BME280;39010;48.088;7.954;2022-07-12T10:33:18;99329.97;;;30.60;34.82
53116;BME280;39010;48.088;7.954;2022-07-12T10:36:05;99315.88;;;30.56;34.21
53116;BME280;39010;48.088;7.954;2022-07-12T10:38:40;99332.66;;;29.73;32.29
53116;BME280;39010;48.088;7.954;2022-07-12T10:41:18;99324.84;;;29.51;34.43
53116;BME280;39010;48.088;7.954;2022-07-12T10:43:45;99330.81;;;29.29;33.57
53116;BME280;39010;48.088;7.954;2022-07-12T10:46:31;99329.19;;;29.87;32.12
53116;BME280;39010;48.088;7.954;2022-07-12T10:49:25;99324.06;;;30.23;32.49
53116;BME280;39010;48.088;7.954;2022-07-12T10:54:37;99316.03;;;30.65;32.10
53116;BME280;39010;48.088;7.954;2022-07-12T10:57:04;99323.97;;;29.21;30.95
53116;BME280;39010;48.088;7.954;2022-07-12T10:59:34;99317.88;;;28.89;31.77
53116;BME280;39010;48.088;7.954;2022-07-12T11:02:02;99319.28;;;29.80;31.65
53116;BME280;39010;48.088;7.954;2022-07-12T11:04:48;99313.63;;;29.91;32.13
53116;BME280;39010;48.088;7.954;2022-07-12T11:07:17;99294.88;;;29.58;34.81
53116;BME280;39010;48.088;7.954;2022-07-12T11:09:44;99307.44;;;28.81;35.91
53116;BME280;39010;48.088;7.954;2022-07-12T11:12:14;99308.41;;;28.56;35.67
53116;BME280;39010;48.088;7.954;2022-07-12T11:14:44;99302.59;;;28.57;36.60
53116;BME280;39010;48.088;7.954;2022-07-12T11:17:11;99305.56;;;29.40;36.76
53116;BME280;39010;48.088;7.954;2022-07-12T11:19:38;99300.47;;;29.23;35.35
53116;BME280;39010;48.088;7.954;2022-07-12T11:22:04;99300.31;;;29.09;35.53
53116;BME280;39010;48.088;7.954;2022-07-12T11:24:32;99309.59;;;29.19;35.32
53116;BME280;39010;48.088;7.954;2022-07-12T11:27:01;99307.63;;;28.95;35.12
53116;BME280;39010;48.088;7.954;2022-07-12T11:29:28;99306.75;;;28.55;35.40
53116;BME280;39010;48.088;7.954;2022-07-12T11:32:02;99314.78;;;27.80;36.45
53116;BME280;39010;48.088;7.954;2022-07-12T11:34:37;99298.25;;;27.70;37.06
53116;BME280;39010;48.088;7.954;2022-07-12T11:37:03;99293.13;;;28.18;36.28
53116;BME280;39010;48.088;7.954;2022-07-12T11:39:35;99289.56;;;28.18;35.93
53116;BME280;39010;48.088;7.954;2022-07-12T11:42:04;99295.56;;;28.75;36.14
53116;BME280;39010;48.088;7.954;2022-07-12T11:44:50;99300.22;;;27.59;37.93
53116;BME280;39010;48.088;7.954;2022-07-12T11:47:18;99295.16;;;27.92;37.54
53116;BME280;39010;48.088;7.954;2022-07-12T11:49:51;99293.78;;;27.84;37.30
53116;BME280;39010;48.088;7.954;2022-07-12T11:52:20;99294.38;;;27.71;37.13
53116;BME280;39010;48.088;7.954;2022-07-12T11:54:48;99300.22;;;27.64;37.57
53116;BME280;39010;48.088;7.954;2022-07-12T11:57:19;99294.25;;;28.17;37.68
53116;BME280;39010;48.088;7.954;2022-07-12T11:59:45;99290.94;;;28.10;36.54
53116;BME280;39010;48.088;7.954;2022-07-12T12:02:13;99298.78;;;28.48;35.94
53116;BME280;39010;48.088;7.954;2022-07-12T12:04:45;99296.97;;;28.73;35.50
53116;BME280;39010;48.088;7.954;2022-07-12T12:07:13;99295.78;;;28.39;35.74
53116;BME280;39010;48.088;7.954;2022-07-12T12:12:44;99294.13;;;28.43;36.71
53116;BME280;39010;48.088;7.954;2022-07-12T12:15:13;99294.53;;;28.66;36.38
53116;BME280;39010;48.088;7.954;2022-07-12T12:17:55;99288.13;;;28.71;35.16
53116;BME280;39010;48.088;7.954;2022-07-12T12:20:23;99297.50;;;28.30;35.30
53116;BME280;39010;48.088;7.954;2022-07-12T12:22:57;99289.28;;;28.19;35.81
53116;BME280;39010;48.088;7.954;2022-07-12T12:25:26;99295.19;;;28.47;35.44
53116;BME280;39010;48.088;7.954;2022-07-12T12:27:56;99277.44;;;28.99;36.63
53116;BME280;39010;48.088;7.954;2022-07-12T12:30:54;99287.56;;;28.79;37.07
53116;BME280;39010;48.088;7.954;2022-07-12T12:33:41;99284.91;;;28.58;36.56
53116;BME280;39010;48.088;7.954;2022-07-12T12:36:27;99278.38;;;28.44;36.75
53116;BME280;39010;48.088;7.954;2022-07-12T12:38:59;99282.41;;;28.12;37.35
53116;BME280;39010;48.088;7.954;2022-07-12T12:41:29;99279.25;;;28.34;36.28
53116;BME280;39010;48.088;7.954;2022-07-12T12:44:02;99282.13;;;28.08;37.50
53116;BME280;39010;48.088;7.954;2022-07-12T12:46:52;99275.50;;;28.09;37.72
53116;BME280;39010;48.088;7.954;2022-07-12T12:49:50;99274.00;;;27.61;38.85
53116;BME280;39010;48.088;7.954;2022-07-12T12:52:27;99266.84;;;27.60;39.38
53116;BME280;39010;48.088;7.954;2022-07-12T12:54:55;99255.75;;;27.81;38.89
53116;BME280;39010;48.088;7.954;2022-07-12T12:57:23;99261.41;;;28.11;38.72
53116;BME280;39010;48.088;7.954;2022-07-12T12:59:52;99263.44;;;27.89;39.38
53116;BME280;39010;48.088;7.954;2022-07-12T13:02:19;99257.00;;;28.10;38.01
53116;BME280;39010;48.088;7.954;2022-07-12T13:04:49;99241.97;;;27.76;38.86
53116;BME280;39010;48.088;7.954;2022-07-12T13:07:15;99249.03;;;27.98;38.25
53116;BME280;39010;48.088;7.954;2022-07-12T13:09:42;99257.44;;;27.61;39.08
53116;BME280;39010;48.088;7.954;2022-07-12T13:12:09;99240.91;;;27.61;39.19
53116;BME280;39010;48.088;7.954;2022-07-12T13:14:36;99242.56;;;27.62;39.26
53116;BME280;39010;48.088;7.954;2022-07-12T13:17:03;99240.34;;;27.64;39.55
53116;BME280;39010;48.088;7.954;2022-07-12T13:19:30;99249.09;;;27.87;38.56
53116;BME280;39010;48.088;7.954;2022-07-12T13:21:58;99243.38;;;27.73;38.31
53116;BME280;39010;48.088;7.954;2022-07-12T13:24:25;99246.72;;;27.60;39.37
53116;BME280;39010;48.088;7.954;2022-07-12T13:26:51;99252.69;;;27.88;38.46
53116;BME280;39010;48.088;7.954;2022-07-12T13:29:18;99252.91;;;27.97;38.79
53116;BME280;39010;48.088;7.954;2022-07-12T13:31:44;99254.59;;;27.87;38.71
53116;BME280;39010;48.088;7.954;2022-07-12T13:34:11;99244.88;;;28.05;38.84